createdAt,value
2024-03-19T17:30:31.831Z,5.5
2024-03-19T17:35:20.874Z,5.8
2024-03-19T17:40:27.252Z,6.4
2024-03-19T17:45:32.957Z,6.6
2024-03-19T17:50:21.868Z,6.9
2024-03-19T17:55:28.059Z,10.0
2024-03-19T18:00:34.108Z,9.8
2024-03-19T18:05:22.787Z,7.3
2024-03-19T18:10:28.821Z,7.4
2024-03-19T18:15:17.932Z,7.0
2024-03-19T18:20:23.959Z,9.2
2024-03-19T18:25:29.929Z,9.0
2024-03-19T18:30:19.058Z,6.3
2024-03-19T18:35:35.048Z,6.2
2024-03-19T18:40:31.369Z,6.1
2024-03-19T18:45:20.213Z,6.1
2024-03-19T18:50:26.230Z,7.1
2024-03-19T18:55:32.602Z,6.8
2024-03-19T19:00:21.311Z,6.3
2024-03-19T19:05:27.243Z,6.9
2024-03-19T19:10:34.132Z,8.0
2024-03-19T19:15:22.277Z,8.2
2024-03-19T19:20:28.355Z,6.9
2024-03-19T19:25:34.834Z,7.9
2024-03-19T19:30:23.456Z,9.1
2024-03-19T19:35:29.511Z,8.4
2024-03-19T19:40:18.439Z,7.8
2024-03-19T19:45:24.525Z,7.9
2024-03-19T19:50:30.587Z,7.8
2024-03-19T19:55:19.600Z,7.7
2024-03-19T20:00:25.872Z,7.1
2024-03-19T20:05:30.520Z,6.8
2024-03-19T20:10:19.633Z,7.5
2024-03-19T20:15:25.687Z,7.5
2024-03-19T20:20:31.734Z,9.2
2024-03-19T20:25:20.847Z,9.3
2024-03-19T20:30:26.762Z,7.9
2024-03-19T20:35:32.885Z,7.9
2024-03-19T20:40:21.893Z,8.2
2024-03-19T20:45:28.061Z,8.5
2024-03-19T20:50:34.220Z,12.5
2024-03-19T20:55:23.008Z,12.5
2024-03-19T21:00:29.142Z,9.8
2024-03-19T21:05:18.041Z,9.9
2024-03-19T21:10:24.219Z,11.5
2024-03-19T21:15:30.215Z,11.4
2024-03-19T21:20:19.245Z,9.5
2024-03-19T21:25:25.282Z,9.3
2024-03-19T21:30:31.375Z,9.6
2024-03-19T21:35:20.431Z,9.2
2024-03-19T21:40:29.432Z,9.4
2024-03-19T21:45:32.486Z,9.6
2024-03-19T21:50:21.697Z,9.6
2024-03-19T21:55:27.544Z,9.6
2024-03-19T22:00:33.645Z,10.7
2024-03-19T22:05:22.371Z,10.5
2024-03-19T22:10:28.262Z,10.2
2024-03-19T22:15:34.317Z,10.3
2024-03-19T22:20:23.508Z,10.0
2024-03-19T22:25:29.430Z,9.9
2024-03-19T22:30:18.480Z,9.1
2024-03-19T22:35:24.404Z,9.5
2024-03-19T22:40:30.525Z,11.2
2024-03-19T22:45:19.737Z,10.9
2024-03-19T22:50:25.746Z,9.4
2024-03-19T22:55:31.705Z,9.6
2024-03-19T23:00:22.071Z,9.6
2024-03-19T23:05:26.547Z,9.5
2024-03-19T23:10:32.573Z,8.9
2024-03-19T23:15:21.987Z,9.6
2024-03-19T23:20:27.584Z,13.1
2024-03-19T23:25:33.641Z,12.8
2024-03-19T23:30:22.704Z,10.3
2024-03-19T23:35:28.705Z,10.0
2024-03-19T23:40:34.799Z,9.5
2024-03-19T23:45:23.842Z,9.8
2024-03-19T23:50:29.827Z,10.3
2024-03-19T23:55:18.917Z,10.4
